sensor_id;sensor_type;location;lat;lon;timestamp;pressure;altitude;pressure_sealevel;temperature;humidity
33506;BME280;19843;51.040;13.782;2023-03-25T00:01:44;99289.13;;;12.05;69.32
33506;BME280;19843;51.040;13.782;2023-03-25T00:04:11;99291.53;;;12.08;69.87
33506;BME280;19843;51.040;13.782;2023-03-25T00:06:38;99286.03;;;12.00;69.95
33506;BME280;19843;51.040;13.782;2023-03-25T00:09:07;99283.88;;;11.94;70.20
33506;BME280;19843;51.040;13.782;2023-03-25T00:11:35;99280.91;;;11.97;69.62
33506;BME280;19843;51.040;13.782;2023-03-25T00:14:02;99278.50;;;11.94;70.11
33506;BME280;19843;51.040;13.782;2023-03-25T00:16:30;99276.91;;;11.81;70.54
33506;BME280;19843;51.040;13.782;2023-03-25T00:18:58;99270.28;;;11.85;69.95
33506;BME280;19843;51.040;13.782;2023-03-25T00:21:27;99273.78;;;11.76;70.94
33506;BME280;19843;51.040;13.782;2023-03-25T00:23:54;99273.78;;;11.76;71.13
33506;BME280;19843;51.040;13.782;2023-03-25T00:26:23;99261.84;;;11.49;71.22
33506;BME280;19843;51.040;13.782;2023-03-25T00:28:55;99270.53;;;11.63;70.54
33506;BME280;19843;51.040;13.782;2023-03-25T00:31:22;99259.16;;;11.49;70.96
33506;BME280;19843;51.040;13.782;2023-03-25T00:33:49;99260.22;;;11.68;70.66
33506;BME280;19843;51.040;13.782;2023-03-25T00:36:16;99255.09;;;11.65;70.31
33506;BME280;19843;51.040;13.782;2023-03-25T00:38:46;99251.41;;;11.56;70.52
33506;BME280;19843;51.040;13.782;2023-03-25T00:41:14;99256.38;;;11.61;70.81
33506;BME280;19843;51.040;13.782;2023-03-25T00:43:49;99245.94;;;11.67;70.39
33506;BME280;19843;51.040;13.782;2023-03-25T00:46:17;99253.63;;;11.41;71.59
33506;BME280;19843;51.040;13.782;2023-03-25T00:48:44;99262.88;;;11.58;70.94
33506;BME280;19843;51.040;13.782;2023-03-25T00:51:11;99251.56;;;11.64;70.64
33506;BME280;19843;51.040;13.782;2023-03-25T00:53:46;99253.94;;;11.48;70.48
33506;BME280;19843;51.040;13.782;2023-03-25T00:56:14;99260.31;;;11.57;70.58
33506;BME280;19843;51.040;13.782;2023-03-25T00:58:41;99253.09;;;11.57;71.22
33506;BME280;19843;51.040;13.782;2023-03-25T01:01:11;99251.13;;;11.49;71.32
33506;BME280;19843;51.040;13.782;2023-03-25T01:03:39;99258.66;;;11.65;70.87
33506;BME280;19843;51.040;13.782;2023-03-25T01:06:09;99248.03;;;11.64;71.17
33506;BME280;19843;51.040;13.782;2023-03-25T01:08:37;99258.06;;;11.62;70.81
33506;BME280;19843;51.040;13.782;2023-03-25T01:11:05;99254.84;;;11.68;70.61
33506;BME280;19843;51.040;13.782;2023-03-25T01:13:34;99250.53;;;11.56;70.75
33506;BME280;19843;51.040;13.782;2023-03-25T01:16:05;99241.34;;;11.48;71.08
33506;BME280;19843;51.040;13.782;2023-03-25T01:18:33;99238.81;;;11.47;71.28
33506;BME280;19843;51.040;13.782;2023-03-25T01:21:03;99240.63;;;11.37;71.44
33506;BME280;19843;51.040;13.782;2023-03-25T01:23:30;99235.06;;;11.28;71.17
33506;BME280;19843;51.040;13.782;2023-03-25T01:25:58;99233.88;;;11.42;71.30
33506;BME280;19843;51.040;13.782;2023-03-25T01:28:25;99233.59;;;11.45;71.09
33506;BME280;19843;51.040;13.782;2023-03-25T01:30:58;99228.22;;;11.45;70.80
33506;BME280;19843;51.040;13.782;2023-03-25T01:33:26;99227.22;;;11.46;71.14
33506;BME280;19843;51.040;13.782;2023-03-25T01:35:55;99220.28;;;11.44;71.33
33506;BME280;19843;51.040;13.782;2023-03-25T01:38:22;99212.81;;;11.47;71.13
33506;BME280;19843;51.040;13.782;2023-03-25T01:40:49;99210.69;;;11.51;70.74
33506;BME280;19843;51.040;13.782;2023-03-25T01:43:18;99201.38;;;11.45;71.14
33506;BME280;19843;51.040;13.782;2023-03-25T01:45:45;99198.69;;;11.45;70.91
33506;BME280;19843;51.040;13.782;2023-03-25T01:48:14;99208.00;;;11.51;70.75
33506;BME280;19843;51.040;13.782;2023-03-25T01:50:45;99205.31;;;11.41;71.26
33506;BME280;19843;51.040;13.782;2023-03-25T01:53:15;99201.50;;;11.44;71.28
33506;BME280;19843;51.040;13.782;2023-03-25T01:55:42;99194.28;;;11.44;71.54
33506;BME280;19843;51.040;13.782;2023-03-25T01:58:12;99188.94;;;11.44;71.84
33506;BME280;19843;51.040;13.782;2023-03-25T02:00:40;99188.66;;;11.47;71.53
33506;BME280;19843;51.040;13.782;2023-03-25T02:03:09;99178.06;;;11.46;71.94
33506;BME280;19843;51.040;13.782;2023-03-25T02:05:38;99177.22;;;11.65;71.24
33506;BME280;19843;51.040;13.782;2023-03-25T02:08:07;99181.50;;;11.77;70.56
33506;BME280;19843;51.040;13.782;2023-03-25T02:10:36;99182.47;;;11.76;70.81
33506;BME280;19843;51.040;13.782;2023-03-25T02:13:04;99187.28;;;11.63;71.66
33506;BME280;19843;51.040;13.782;2023-03-25T02:15:35;99185.03;;;11.68;71.22
33506;BME280;19843;51.040;13.782;2023-03-25T02:18:10;99179.53;;;11.79;71.16
33506;BME280;19843;51.040;13.782;2023-03-25T02:20:45;99191.69;;;11.83;71.08
33506;BME280;19843;51.040;13.782;2023-03-25T02:23:32;99185.19;;;11.86;69.99
33506;BME280;19843;51.040;13.782;2023-03-25T02:26:16;99181.09;;;11.72;70.43
33506;BME280;19843;51.040;13.782;2023-03-25T02:28:53;99180.06;;;11.73;70.66
33506;BME280;19843;51.040;13.782;2023-03-25T02:31:36;99179.22;;;11.63;70.41
33506;BME280;19843;51.040;13.782;2023-03-25T02:34:21;99177.94;;;11.67;70.82
33506;BME280;19843;51.040;13.782;2023-03-25T02:36:59;99185.16;;;11.66;70.91
33506;BME280;19843;51.040;13.782;2023-03-25T02:39:33;99182.34;;;11.68;70.92
33506;BME280;19843;51.040;13.782;2023-03-25T02:42:06;99178.94;;;11.76;70.43
33506;BME280;19843;51.040;13.782;2023-03-25T02:44:36;99176.25;;;11.66;70.19
33506;BME280;19843;51.040;13.782;2023-03-25T02:47:06;99168.38;;;11.74;69.65
33506;BME280;19843;51.040;13.782;2023-03-25T02:49:35;99162.16;;;11.83;69.71
33506;BME280;19843;51.040;13.782;2023-03-25T02:52:05;99155.66;;;11.96;68.54
33506;BME280;19843;51.040;13.782;2023-03-25T02:54:36;99153.56;;;11.99;68.58
33506;BME280;19843;51.040;13.782;2023-03-25T02:57:08;99155.50;;;11.87;69.07
33506;BME280;19843;51.040;13.782;2023-03-25T02:59:37;99162.72;;;11.77;69.92
33506;BME280;19843;51.040;13.782;2023-03-25T03:02:05;99161.00;;;11.76;69.48
33506;BME280;19843;51.040;13.782;2023-03-25T03:04:43;99162.41;;;11.80;69.20
33506;BME280;19843;51.040;13.782;2023-03-25T03:07:10;99170.34;;;11.72;69.35
33506;BME280;19843;51.040;13.782;2023-03-25T03:09:43;99171.72;;;11.76;70.13
33506;BME280;19843;51.040;13.782;2023-03-25T03:12:14;99168.06;;;11.77;70.01
33506;BME280;19843;51.040;13.782;2023-03-25T03:14:50;99169.03;;;11.66;70.21
33506;BME280;19843;51.040;13.782;2023-03-25T03:17:20;99168.22;;;11.76;69.49
33506;BME280;19843;51.040;13.782;2023-03-25T03:19:51;99177.41;;;11.73;70.05
33506;BME280;19843;51.040;13.782;2023-03-25T03:22:30;99167.66;;;11.72;70.01
33506;BME280;19843;51.040;13.782;2023-03-25T03:25:03;99175.38;;;11.56;70.86
33506;BME280;19843;51.040;13.782;2023-03-25T03:27:32;99173.69;;;11.55;70.65
33506;BME280;19843;51.040;13.782;2023-03-25T03:30:02;99175.69;;;11.53;71.07
33506;BME280;19843;51.040;13.782;2023-03-25T03:32:32;99171.59;;;11.58;70.92
33506;BME280;19843;51.040;13.782;2023-03-25T03:35:05;99176.69;;;11.52;71.41
33506;BME280;19843;51.040;13.782;2023-03-25T03:37:35;99178.78;;;11.48;71.14
33506;BME280;19843;51.040;13.782;2023-03-25T03:40:05;99165.22;;;11.49;70.92
33506;BME280;19843;51.040;13.782;2023-03-25T03:42:36;99172.13;;;11.42;71.19
33506;BME280;19843;51.040;13.782;2023-03-25T03:45:07;99168.63;;;11.52;71.37
33506;BME280;19843;51.040;13.782;2023-03-25T03:47:35;99179.13;;;11.24;71.59
33506;BME280;19843;51.040;13.782;2023-03-25T03:50:06;99183.97;;;11.30;71.40
33506;BME280;19843;51.040;13.782;2023-03-25T03:52:36;99182.13;;;11.31;71.43
33506;BME280;19843;51.040;13.782;2023-03-25T03:55:08;99187.53;;;11.40;71.12
33506;BME280;19843;51.040;13.782;2023-03-25T03:57:39;99182.16;;;11.40;70.77
33506;BME280;19843;51.040;13.782;2023-03-25T04:00:11;99184.56;;;11.43;69.99
33506;BME280;19843;51.040;13.782;2023-03-25T04:02:40;99180.75;;;11.56;69.99
33506;BME280;19843;51.040;13.782;2023-03-25T04:05:10;99193.31;;;11.45;69.70
33506;BME280;19843;51.040;13.782;2023-03-25T04:07:39;99197.13;;;11.43;70.20
33506;BME280;19843;51.040;13.782;2023-03-25T04:10:12;99199.41;;;11.47;69.86
33506;BME280;19843;51.040;13.782;2023-03-25T04:12:41;99201.38;;;11.45;69.36
33506;BME280;19843;51.040;13.782;2023-03-25T04:15:11;99191.19;;;11.39;69.31
33506;BME280;19843;51.040;13.782;2023-03-25T04:17:38;99184.84;;;11.50;68.94
33506;BME280;19843;51.040;13.782;2023-03-25T04:20:06;99190.34;;;11.39;69.04
33506;BME280;19843;51.040;13.782;2023-03-25T04:22:36;99195.47;;;11.52;69.10
33506;BME280;19843;51.040;13.782;2023-03-25T04:25:04;99198.25;;;11.40;69.50
33506;BME280;19843;51.040;13.782;2023-03-25T04:27:32;99196.28;;;11.42;68.93
33506;BME280;19843;51.040;13.782;2023-03-25T04:30:03;99198.69;;;11.36;69.62
33506;BME280;19843;51.040;13.782;2023-03-25T04:32:30;99199.94;;;11.41;69.60
33506;BME280;19843;51.040;13.782;2023-03-25T04:34:58;99193.31;;;11.36;70.49
33506;BME280;19843;51.040;13.782;2023-03-25T04:37:25;99208.13;;;11.40;69.04
33506;BME280;19843;51.040;13.782;2023-03-25T04:39:53;99200.53;;;11.45;69.80
33506;BME280;19843;51.040;13.782;2023-03-25T04:42:25;99202.22;;;11.46;69.23
33506;BME280;19843;51.040;13.782;2023-03-25T04:44:59;99198.16;;;11.52;69.25
33506;BME280;19843;51.040;13.782;2023-03-25T04:47:27;99203.09;;;11.56;69.03
33506;BME280;19843;51.040;13.782;2023-03-25T04:49:55;99200.00;;;11.61;68.65
33506;BME280;19843;51.040;13.782;2023-03-25T04:52:22;99211.00;;;11.58;69.03
33506;BME280;19843;51.040;13.782;2023-03-25T04:54:49;99204.50;;;11.50;69.18
33506;BME280;19843;51.040;13.782;2023-03-25T04:57:17;99198.41;;;11.48;69.90
33506;BME280;19843;51.040;13.782;2023-03-25T04:59:45;99202.50;;;11.53;69.62
33506;BME280;19843;51.040;13.782;2023-03-25T05:02:13;99196.84;;;11.46;69.12
33506;BME280;19843;51.040;13.782;2023-03-25T05:04:43;99197.16;;;11.53;69.00
33506;BME280;19843;51.040;13.782;2023-03-25T05:07:12;99193.19;;;11.47;69.62
33506;BME280;19843;51.040;13.782;2023-03-25T05:09:41;99198.53;;;11.37;69.24
33506;BME280;19843;51.040;13.782;2023-03-25T05:12:08;99201.38;;;11.45;68.59
33506;BME280;19843;51.040;13.782;2023-03-25T05:14:36;99201.09;;;11.48;68.29
33506;BME280;19843;51.040;13.782;2023-03-25T05:17:04;99204.03;;;11.36;68.55
33506;BME280;19843;51.040;13.782;2023-03-25T05:19:32;99207.28;;;11.49;67.98
33506;BME280;19843;51.040;13.782;2023-03-25T05:22:00;99203.88;;;11.27;68.17
33506;BME280;19843;51.040;13.782;2023-03-25T05:24:29;99219.03;;;11.48;67.96
33506;BME280;19843;51.040;13.782;2023-03-25T05:26:57;99215.66;;;11.56;67.89
33506;BME280;19843;51.040;13.782;2023-03-25T05:29:27;99227.25;;;11.56;67.98
33506;BME280;19843;51.040;13.782;2023-03-25T05:31:59;99223.16;;;11.52;67.66
33506;BME280;19843;51.040;13.782;2023-03-25T05:34:26;99208.00;;;11.51;68.10
33506;BME280;19843;51.040;13.782;2023-03-25T05:36:56;99211.88;;;11.58;66.64
33506;BME280;19843;51.040;13.782;2023-03-25T05:39:23;99221.50;;;11.70;66.99
33506;BME280;19843;51.040;13.782;2023-03-25T05:41:51;99214.56;;;11.78;66.15
33506;BME280;19843;51.040;13.782;2023-03-25T05:44:20;99215.56;;;11.77;66.64
33506;BME280;19843;51.040;13.782;2023-03-25T05:46:48;99218.97;;;11.79;65.82
33506;BME280;19843;51.040;13.782;2023-03-25T05:49:15;99207.91;;;11.62;64.20
33506;BME280;19843;51.040;13.782;2023-03-25T05:51:42;99220.19;;;11.65;64.57
33506;BME280;19843;51.040;13.782;2023-03-25T05:54:11;99219.06;;;11.58;64.42
33506;BME280;19843;51.040;13.782;2023-03-25T05:56:38;99227.81;;;11.50;64.60
33506;BME280;19843;51.040;13.782;2023-03-25T05:59:06;99220.59;;;11.50;64.94
33506;BME280;19843;51.040;13.782;2023-03-25T06:01:35;99218.84;;;11.30;65.63
33506;BME280;19843;51.040;13.782;2023-03-25T06:04:03;99226.25;;;11.07;63.92
33506;BME280;19843;51.040;13.782;2023-03-25T06:06:35;99237.72;;;11.19;63.95
33506;BME280;19843;51.040;13.782;2023-03-25T06:09:02;99237.50;;;11.32;63.48
33506;BME280;19843;51.040;13.782;2023-03-25T06:11:31;99237.19;;;11.25;63.17
33506;BME280;19843;51.040;13.782;2023-03-25T06:14:03;99233.59;;;11.45;63.19
33506;BME280;19843;51.040;13.782;2023-03-25T06:16:30;99249.97;;;11.42;63.87
33506;BME280;19843;51.040;13.782;2023-03-25T06:18:59;99249.97;;;11.42;63.22
33506;BME280;19843;51.040;13.782;2023-03-25T06:21:26;99247.41;;;11.10;64.41
33506;BME280;19843;51.040;13.782;2023-03-25T06:23:54;99249.63;;;10.95;65.68
33506;BME280;19843;51.040;13.782;2023-03-25T06:26:23;99245.63;;;11.11;64.96
33506;BME280;19843;51.040;13.782;2023-03-25T06:28:52;99250.06;;;11.00;65.62
33506;BME280;19843;51.040;13.782;2023-03-25T06:31:21;99270.31;;;10.83;65.88
33506;BME280;19843;51.040;13.782;2023-03-25T06:33:52;99263.72;;;10.66;66.29
33506;BME280;19843;51.040;13.782;2023-03-25T06:36:19;99252.97;;;10.87;66.36
33506;BME280;19843;51.040;13.782;2023-03-25T06:38:47;99263.47;;;11.00;66.14
33506;BME280;19843;51.040;13.782;2023-03-25T06:41:15;99258.66;;;11.25;65.69
33506;BME280;19843;51.040;13.782;2023-03-25T06:43:45;99258.03;;;11.42;65.17
33506;BME280;19843;51.040;13.782;2023-03-25T06:46:13;99270.53;;;11.82;64.01
33506;BME280;19843;51.040;13.782;2023-03-25T06:48:41;99259.44;;;12.16;63.28
33506;BME280;19843;51.040;13.782;2023-03-25T06:51:09;99247.84;;;12.16;61.47
33506;BME280;19843;51.040;13.782;2023-03-25T06:53:36;99255.63;;;12.19;62.15
33506;BME280;19843;51.040;13.782;2023-03-25T06:56:04;99254.50;;;12.41;60.95
33506;BME280;19843;51.040;13.782;2023-03-25T06:58:31;99250.94;;;12.60;60.35
33506;BME280;19843;51.040;13.782;2023-03-25T07:01:00;99256.63;;;12.47;60.32
33506;BME280;19843;51.040;13.782;2023-03-25T07:03:34;99259.44;;;12.26;61.27
33506;BME280;19843;51.040;13.782;2023-03-25T07:06:02;99264.09;;;12.24;61.46
33506;BME280;19843;51.040;13.782;2023-03-25T07:08:30;99264.81;;;12.06;60.66
33506;BME280;19843;51.040;13.782;2023-03-25T07:10:59;99266.38;;;12.19;60.01
33506;BME280;19843;51.040;13.782;2023-03-25T07:13:26;99259.56;;;12.44;60.04
33506;BME280;19843;51.040;13.782;2023-03-25T07:15:53;99251.66;;;12.52;60.24
33506;BME280;19843;51.040;13.782;2023-03-25T07:18:21;99259.75;;;12.42;59.51
33506;BME280;19843;51.040;13.782;2023-03-25T07:20:50;99261.19;;;12.93;59.53
33506;BME280;19843;51.040;13.782;2023-03-25T07:23:17;99252.03;;;13.24;58.21
33506;BME280;19843;51.040;13.782;2023-03-25T07:25:45;99268.06;;;13.15;57.19
33506;BME280;19843;51.040;13.782;2023-03-25T07:28:12;99266.19;;;12.79;58.01
33506;BME280;19843;51.040;13.782;2023-03-25T07:30:40;99257.00;;;12.81;57.48
33506;BME280;19843;51.040;13.782;2023-03-25T07:33:07;99258.50;;;12.93;56.81
33506;BME280;19843;51.040;13.782;2023-03-25T07:35:35;99260.31;;;13.03;57.27
33506;BME280;19843;51.040;13.782;2023-03-25T07:38:03;99267.16;;;12.97;57.67
33506;BME280;19843;51.040;13.782;2023-03-25T07:40:31;99255.44;;;12.69;56.94
33506;BME280;19843;51.040;13.782;2023-03-25T07:42:58;99266.44;;;12.85;57.15
33506;BME280;19843;51.040;13.782;2023-03-25T07:45:25;99262.75;;;12.96;56.21
33506;BME280;19843;51.040;13.782;2023-03-25T07:47:53;99272.31;;;12.61;56.56
33506;BME280;19843;51.040;13.782;2023-03-25T07:50:21;99285.78;;;12.51;57.08
33506;BME280;19843;51.040;13.782;2023-03-25T07:52:51;99289.41;;;12.60;57.66
33506;BME280;19843;51.040;13.782;2023-03-25T07:55:20;99292.69;;;12.35;57.95
33506;BME280;19843;51.040;13.782;2023-03-25T07:57:47;99292.41;;;12.28;58.84
33506;BME280;19843;51.040;13.782;2023-03-25T08:00:14;99306.69;;;12.19;58.82
33506;BME280;19843;51.040;13.782;2023-03-25T08:02:42;99312.34;;;12.16;59.92
33506;BME280;19843;51.040;13.782;2023-03-25T08:05:09;99311.22;;;12.18;60.02
33506;BME280;19843;51.040;13.782;2023-03-25T08:07:37;99317.72;;;12.25;60.38
33506;BME280;19843;51.040;13.782;2023-03-25T08:10:05;99312.22;;;12.27;61.12
33506;BME280;19843;51.040;13.782;2023-03-25T08:12:34;99316.31;;;12.21;63.37
33506;BME280;19843;51.040;13.782;2023-03-25T08:15:02;99313.44;;;11.94;64.28
33506;BME280;19843;51.040;13.782;2023-03-25T08:17:30;99315.16;;;12.04;64.67
33506;BME280;19843;51.040;13.782;2023-03-25T08:19:57;99317.72;;;12.06;65.47
33506;BME280;19843;51.040;13.782;2023-03-25T08:22:26;99308.84;;;11.84;66.53
33506;BME280;19843;51.040;13.782;2023-03-25T08:24:53;99315.94;;;11.85;66.75
33506;BME280;19843;51.040;13.782;2023-03-25T08:27:20;99310.00;;;11.82;68.79
33506;BME280;19843;51.040;13.782;2023-03-25T08:29:49;99313.06;;;11.67;68.62
33506;BME280;19843;51.040;13.782;2023-03-25T08:32:22;99313.91;;;11.68;69.36
33506;BME280;19843;51.040;13.782;2023-03-25T08:34:51;99321.63;;;11.52;69.12
33506;BME280;19843;51.040;13.782;2023-03-25T08:37:18;99309.34;;;11.59;68.54
33506;BME280;19843;51.040;13.782;2023-03-25T08:39:46;99319.50;;;11.55;69.63
33506;BME280;19843;51.040;13.782;2023-03-25T08:42:15;99324.66;;;11.68;70.08
33506;BME280;19843;51.040;13.782;2023-03-25T08:44:43;99333.41;;;11.08;73.55
33506;BME280;19843;51.040;13.782;2023-03-25T08:47:12;99347.31;;;11.23;76.06
33506;BME280;19843;51.040;13.782;2023-03-25T08:49:39;99345.19;;;10.75;80.38
33506;BME280;19843;51.040;13.782;2023-03-25T08:52:06;99343.22;;;10.56;80.96
33506;BME280;19843;51.040;13.782;2023-03-25T08:54:35;99348.81;;;10.53;83.66
33506;BME280;19843;51.040;13.782;2023-03-25T08:57:02;99352.22;;;10.55;81.41
33506;BME280;19843;51.040;13.782;2023-03-25T08:59:31;99368.66;;;10.07;83.71
33506;BME280;19843;51.040;13.782;2023-03-25T09:01:59;99358.88;;;10.29;84.37
33506;BME280;19843;51.040;13.782;2023-03-25T09:04:32;99366.34;;;10.14;85.62
33506;BME280;19843;51.040;13.782;2023-03-25T09:07:00;99366.38;;;10.46;85.21
33506;BME280;19843;51.040;13.782;2023-03-25T09:09:37;99370.72;;;10.15;85.58
33506;BME280;19843;51.040;13.782;2023-03-25T09:12:05;99364.03;;;10.09;85.51
33506;BME280;19843;51.040;13.782;2023-03-25T09:14:32;99365.00;;;10.08;85.17
33506;BME280;19843;51.040;13.782;2023-03-25T09:17:00;99367.19;;;10.14;86.47
33506;BME280;19843;51.040;13.782;2023-03-25T09:19:27;99379.22;;;10.42;85.19
33506;BME280;19843;51.040;13.782;2023-03-25T09:21:56;99370.94;;;10.34;86.32
33506;BME280;19843;51.040;13.782;2023-03-25T09:24:23;99383.03;;;10.17;84.81
33506;BME280;19843;51.040;13.782;2023-03-25T09:26:51;99388.84;;;10.22;83.90
33506;BME280;19843;51.040;13.782;2023-03-25T09:29:18;99390.16;;;10.28;86.21
33506;BME280;19843;51.040;13.782;2023-03-25T09:31:49;99383.00;;;10.29;83.82
33506;BME280;19843;51.040;13.782;2023-03-25T09:34:16;99395.31;;;10.20;82.34
33506;BME280;19843;51.040;13.782;2023-03-25T09:36:43;99377.13;;;10.23;82.43
33506;BME280;19843;51.040;13.782;2023-03-25T09:39:13;99376.22;;;10.02;83.48
33506;BME280;19843;51.040;13.782;2023-03-25T09:41:44;99371.94;;;10.22;83.70
33506;BME280;19843;51.040;13.782;2023-03-25T09:44:15;99368.00;;;10.26;85.76
33506;BME280;19843;51.040;13.782;2023-03-25T09:46:45;99367.16;;;10.25;83.60
33506;BME280;19843;51.040;13.782;2023-03-25T09:49:13;99368.63;;;10.18;85.52
33506;BME280;19843;51.040;13.782;2023-03-25T09:51:41;99368.16;;;10.24;83.31
33506;BME280;19843;51.040;13.782;2023-03-25T09:54:15;99366.69;;;10.32;84.80
33506;BME280;19843;51.040;13.782;2023-03-25T09:56:43;99376.31;;;10.34;85.68
33506;BME280;19843;51.040;13.782;2023-03-25T09:59:12;99371.50;;;10.49;83.16
33506;BME280;19843;51.040;13.782;2023-03-25T10:01:42;99366.84;;;10.83;83.87
33506;BME280;19843;51.040;13.782;2023-03-25T10:04:17;99364.94;;;10.95;83.74
33506;BME280;19843;51.040;13.782;2023-03-25T10:06:55;99362.00;;;10.98;82.50
33506;BME280;19843;51.040;13.782;2023-03-25T10:09:31;99359.91;;;11.02;82.67
33506;BME280;19843;51.040;13.782;2023-03-25T10:12:04;99346.94;;;11.59;82.01
33506;BME280;19843;51.040;13.782;2023-03-25T10:14:36;99356.66;;;11.50;80.73
33506;BME280;19843;51.040;13.782;2023-03-25T10:17:09;99346.84;;;11.70;80.21
33506;BME280;19843;51.040;13.782;2023-03-25T10:19:41;99346.88;;;11.80;81.19
33506;BME280;19843;51.040;13.782;2023-03-25T10:22:16;99340.47;;;12.02;78.95
33506;BME280;19843;51.040;13.782;2023-03-25T10:24:47;99327.06;;;12.41;77.72
33506;BME280;19843;51.040;13.782;2023-03-25T10:27:18;99327.63;;;12.73;79.58
33506;BME280;19843;51.040;13.782;2023-03-25T10:29:49;99331.75;;;12.68;75.82
33506;BME280;19843;51.040;13.782;2023-03-25T10:32:21;99319.69;;;12.91;73.13
33506;BME280;19843;51.040;13.782;2023-03-25T10:34:53;99314.78;;;12.67;74.72
33506;BME280;19843;51.040;13.782;2023-03-25T10:37:23;99319.59;;;12.54;74.57
33506;BME280;19843;51.040;13.782;2023-03-25T10:39:55;99313.44;;;13.01;74.06
33506;BME280;19843;51.040;13.782;2023-03-25T10:42:25;99302.09;;;13.07;73.23
33506;BME280;19843;51.040;13.782;2023-03-25T10:44:53;99294.72;;;13.56;70.67
33506;BME280;19843;51.040;13.782;2023-03-25T10:47:21;99305.56;;;13.74;71.43
33506;BME280;19843;51.040;13.782;2023-03-25T10:49:50;99293.66;;;13.67;70.08
33506;BME280;19843;51.040;13.782;2023-03-25T10:52:17;99294.72;;;13.56;69.98
33506;BME280;19843;51.040;13.782;2023-03-25T10:54:45;99293.78;;;13.47;70.08
33506;BME280;19843;51.040;13.782;2023-03-25T10:57:17;99290.66;;;13.97;66.29
33506;BME280;19843;51.040;13.782;2023-03-25T10:59:50;99285.06;;;14.45;65.17
33506;BME280;19843;51.040;13.782;2023-03-25T11:02:20;99278.50;;;14.83;62.08
33506;BME280;19843;51.040;13.782;2023-03-25T11:04:51;99267.34;;;14.42;60.02
33506;BME280;19843;51.040;13.782;2023-03-25T11:07:19;99278.53;;;14.65;60.93
33506;BME280;19843;51.040;13.782;2023-03-25T11:09:48;99273.41;;;14.44;57.60
33506;BME280;19843;51.040;13.782;2023-03-25T11:12:18;99280.78;;;15.30;60.16
33506;BME280;19843;51.040;13.782;2023-03-25T11:15:02;99279.97;;;14.77;58.98
33506;BME280;19843;51.040;13.782;2023-03-25T11:17:31;99276.28;;;14.43;57.76
33506;BME280;19843;51.040;13.782;2023-03-25T11:19:59;99257.31;;;14.16;57.82
33506;BME280;19843;51.040;13.782;2023-03-25T11:22:33;99259.63;;;14.29;58.60
33506;BME280;19843;51.040;13.782;2023-03-25T11:25:02;99253.13;;;15.02;56.79
33506;BME280;19843;51.040;13.782;2023-03-25T11:27:36;99268.78;;;15.24;56.73
33506;BME280;19843;51.040;13.782;2023-03-25T11:30:06;99249.09;;;14.80;55.29
33506;BME280;19843;51.040;13.782;2023-03-25T11:32:40;99261.78;;;14.44;55.45
33506;BME280;19843;51.040;13.782;2023-03-25T11:35:13;99265.28;;;13.72;57.62
33506;BME280;19843;51.040;13.782;2023-03-25T11:37:42;99304.59;;;13.28;62.34
33506;BME280;19843;51.040;13.782;2023-03-25T11:40:13;99308.56;;;12.47;69.20
33506;BME280;19843;51.040;13.782;2023-03-25T11:42:43;99320.56;;;11.74;74.12
33506;BME280;19843;51.040;13.782;2023-03-25T11:45:18;99319.03;;;11.40;78.62
33506;BME280;19843;51.040;13.782;2023-03-25T11:47:46;99311.63;;;11.63;79.30
33506;BME280;19843;51.040;13.782;2023-03-25T11:50:18;99299.38;;;11.80;80.71
33506;BME280;19843;51.040;13.782;2023-03-25T11:52:45;99267.09;;;12.11;72.39
33506;BME280;19843;51.040;13.782;2023-03-25T11:55:15;99261.97;;;12.57;72.86
33506;BME280;19843;51.040;13.782;2023-03-25T11:57:45;99258.94;;;12.89;70.38
33506;BME280;19843;51.040;13.782;2023-03-25T12:00:19;99244.75;;;13.06;69.53
33506;BME280;19843;51.040;13.782;2023-03-25T12:02:49;99239.25;;;13.63;67.04
33506;BME280;19843;51.040;13.782;2023-03-25T12:05:24;99225.97;;;13.97;64.73
33506;BME280;19843;51.040;13.782;2023-03-25T12:07:58;99219.28;;;14.02;61.35
33506;BME280;19843;51.040;13.782;2023-03-25T12:10:27;99225.28;;;13.95;62.30
33506;BME280;19843;51.040;13.782;2023-03-25T12:13:02;99224.59;;;13.93;61.39
33506;BME280;19843;51.040;13.782;2023-03-25T12:15:34;99211.97;;;13.94;61.30
33506;BME280;19843;51.040;13.782;2023-03-25T12:18:10;99214.50;;;14.13;60.87
33506;BME280;19843;51.040;13.782;2023-03-25T12:20:47;99210.97;;;14.31;60.38
33506;BME280;19843;51.040;13.782;2023-03-25T12:23:18;99204.47;;;14.41;58.53
33506;BME280;19843;51.040;13.782;2023-03-25T12:25:49;99204.31;;;14.43;57.48
33506;BME280;19843;51.040;13.782;2023-03-25T12:28:26;99224.03;;;14.44;58.48
33506;BME280;19843;51.040;13.782;2023-03-25T12:31:01;99206.69;;;14.64;54.59
33506;BME280;19843;51.040;13.782;2023-03-25T12:33:36;99199.75;;;14.61;53.63
33506;BME280;19843;51.040;13.782;2023-03-25T12:36:13;99206.84;;;14.45;54.68
33506;BME280;19843;51.040;13.782;2023-03-25T12:38:46;99190.72;;;14.09;54.34
33506;BME280;19843;51.040;13.782;2023-03-25T12:41:19;99183.78;;;14.24;55.87
33506;BME280;19843;51.040;13.782;2023-03-25T12:43:52;99183.81;;;14.32;54.13
33506;BME280;19843;51.040;13.782;2023-03-25T12:46:28;99186.00;;;14.29;56.04
33506;BME280;19843;51.040;13.782;2023-03-25T12:49:05;99187.00;;;14.28;54.48
33506;BME280;19843;51.040;13.782;2023-03-25T12:51:37;99188.72;;;13.93;55.75
33506;BME280;19843;51.040;13.782;2023-03-25T12:54:10;99224.44;;;13.77;56.99
33506;BME280;19843;51.040;13.782;2023-03-25T12:56:44;99238.38;;;12.21;64.76
33506;BME280;19843;51.040;13.782;2023-03-25T12:59:30;99238.91;;;11.86;72.30
33506;BME280;19843;51.040;13.782;2023-03-25T13:02:07;99207.72;;;11.44;73.81
33506;BME280;19843;51.040;13.782;2023-03-25T13:04:41;99209.94;;;12.19;74.84